createdAt,value
2017-10-12T00:00:50.336Z,76.46
2017-10-12T00:01:50.336Z,77.03
2017-10-12T00:02:50.334Z,77.42
2017-10-12T00:03:50.335Z,77.51
2017-10-12T00:04:50.335Z,77.22
2017-10-12T00:05:50.337Z,76.84
2017-10-12T00:06:50.337Z,77.03
2017-10-12T00:07:50.335Z,76.94
2017-10-12T00:08:50.337Z,77.03
2017-10-12T00:09:50.341Z,77.13
2017-10-12T00:10:50.338Z,77.22
2017-10-12T00:11:50.340Z,76.75
2017-10-12T00:12:50.339Z,76.75
2017-10-12T00:13:50.339Z,76.46
2017-10-12T00:14:50.341Z,77.22
2017-10-12T00:15:50.338Z,77.22
2017-10-12T00:16:50.339Z,76.94
2017-10-12T00:17:50.339Z,77.51
2017-10-12T00:18:50.339Z,76.84
2017-10-12T00:19:50.341Z,77.13
2017-10-12T00:20:50.339Z,76.65
2017-10-12T00:21:50.340Z,75.79
2017-10-12T00:22:50.341Z,75.79
2017-10-12T00:23:50.341Z,75.99
2017-10-12T00:24:50.340Z,75.32
2017-10-12T00:25:50.340Z,74.65
2017-10-12T00:26:50.341Z,74.75
2017-10-12T00:27:50.342Z,73.41
2017-10-12T00:28:50.345Z,73.22
2017-10-12T00:29:50.341Z,73.36
2017-10-12T00:30:50.343Z,73.45
2017-10-12T00:31:50.341Z,73.93
2017-10-12T00:32:50.342Z,73.83
2017-10-12T00:33:50.343Z,75.13
2017-10-12T00:34:50.344Z,75.32
2017-10-12T00:35:50.346Z,75.42
2017-10-12T00:36:50.344Z,74.75
2017-10-12T00:37:50.344Z,74.08
2017-10-12T00:38:50.344Z,73.70
2017-10-12T00:39:50.343Z,73.93
2017-10-12T00:40:50.359Z,73.93
2017-10-12T00:41:50.343Z,74.08
2017-10-12T00:42:50.346Z,74.18
2017-10-12T00:43:50.344Z,74.27
2017-10-12T00:44:50.350Z,74.18
2017-10-12T00:45:50.345Z,74.65
2017-10-12T00:46:50.344Z,74.46
2017-10-12T00:47:50.343Z,73.89
2017-10-12T00:48:50.345Z,74.18
2017-10-12T00:49:50.352Z,73.89
2017-10-12T00:50:50.346Z,73.99
2017-10-12T00:51:50.345Z,74.27
2017-10-12T00:52:50.345Z,74.18
2017-10-12T00:53:50.347Z,74.84
2017-10-12T00:54:50.346Z,74.75
2017-10-12T00:55:50.346Z,74.65
2017-10-12T00:56:50.346Z,75.04
2017-10-12T00:57:50.346Z,75.42
2017-10-12T00:58:50.346Z,75.79
2017-10-12T00:59:50.345Z,75.99
2017-10-12T01:00:50.346Z,75.99
2017-10-12T01:01:50.347Z,76.37
2017-10-12T01:02:50.348Z,76.75
2017-10-12T01:03:50.346Z,76.27
2017-10-12T01:04:50.347Z,76.61
2017-10-12T01:05:50.361Z,76.42
2017-10-12T01:06:50.347Z,77.19
2017-10-12T01:07:50.347Z,77.03
2017-10-12T01:08:50.347Z,77.00
2017-10-12T01:09:50.347Z,77.00
2017-10-12T01:10:50.348Z,76.46
2017-10-12T01:11:50.348Z,76.08
2017-10-12T01:12:50.346Z,76.18
2017-10-12T01:13:50.347Z,76.27
2017-10-12T01:14:50.346Z,76.27
2017-10-12T01:15:50.347Z,76.37
2017-10-12T01:16:50.347Z,76.04
2017-10-12T01:17:50.350Z,76.37
2017-10-12T01:18:50.348Z,76.61
2017-10-12T01:19:50.348Z,77.09
2017-10-12T01:20:50.348Z,76.90
2017-10-12T01:21:50.348Z,77.00
2017-10-12T01:22:50.347Z,77.19
2017-10-12T01:23:50.351Z,77.19
2017-10-12T01:24:50.348Z,76.90
2017-10-12T01:25:50.347Z,77.28
2017-10-12T01:26:50.348Z,76.81
2017-10-12T01:27:50.347Z,77.00
2017-10-12T01:28:50.347Z,76.90
2017-10-12T01:29:50.348Z,77.19
2017-10-12T01:30:50.348Z,76.61
2017-10-12T01:31:50.345Z,76.61
2017-10-12T01:32:50.346Z,76.33
2017-10-12T01:33:50.347Z,76.33
2017-10-12T01:34:50.362Z,75.95
2017-10-12T01:35:50.346Z,75.28
2017-10-12T01:36:50.345Z,75.09
2017-10-12T01:37:50.346Z,75.47
2017-10-12T01:38:50.346Z,75.42
2017-10-12T01:39:50.344Z,75.42
2017-10-12T01:40:50.345Z,74.90
2017-10-12T01:41:50.345Z,75.19
2017-10-12T01:42:50.346Z,75.38
2017-10-12T01:43:50.345Z,75.38
2017-10-12T01:44:50.344Z,75.47
2017-10-12T01:45:50.346Z,75.38
2017-10-12T01:46:50.345Z,75.19
2017-10-12T01:47:50.343Z,75.09
2017-10-12T01:48:50.344Z,75.57
2017-10-12T01:49:50.350Z,75.47
2017-10-12T01:50:50.344Z,75.09
2017-10-12T01:51:50.344Z,74.99
2017-10-12T01:52:50.344Z,75.09
2017-10-12T01:53:50.343Z,75.47
2017-10-12T01:54:50.344Z,75.28
2017-10-12T01:55:50.344Z,75.19
2017-10-12T01:56:50.342Z,75.57
2017-10-12T01:57:50.342Z,75.19
2017-10-12T01:58:50.343Z,75.67
2017-10-12T01:59:50.343Z,75.76
2017-10-12T02:00:50.343Z,76.04
2017-10-12T02:01:50.342Z,75.95
2017-10-12T02:02:50.342Z,75.19
2017-10-12T02:03:50.342Z,75.28
2017-10-12T02:04:50.342Z,75.19
2017-10-12T02:05:50.342Z,75.19
2017-10-12T02:06:50.343Z,75.38
2017-10-12T02:07:50.342Z,75.57
2017-10-12T02:08:50.340Z,75.19
2017-10-12T02:09:50.341Z,75.47
2017-10-12T02:10:50.341Z,75.19
2017-10-12T02:11:50.339Z,75.09
2017-10-12T02:12:50.340Z,74.90
2017-10-12T02:13:50.340Z,75.38
2017-10-12T02:14:50.340Z,74.99
2017-10-12T02:15:50.340Z,74.52
2017-10-12T02:16:50.344Z,74.43
2017-10-12T02:17:50.341Z,74.52
2017-10-12T02:18:50.339Z,74.71
2017-10-12T02:19:50.340Z,75.28
2017-10-12T02:20:50.339Z,74.62
2017-10-12T02:21:50.339Z,74.80
2017-10-12T02:22:50.340Z,74.71
2017-10-12T02:23:50.338Z,74.33
2017-10-12T02:24:50.338Z,73.95
2017-10-12T02:25:50.338Z,73.95
2017-10-12T02:26:50.338Z,74.14
2017-10-12T02:27:50.338Z,74.24
2017-10-12T02:28:50.338Z,74.14
2017-10-12T02:29:50.339Z,74.04
2017-10-12T02:30:50.337Z,73.95
2017-10-12T02:31:50.337Z,74.43
2017-10-12T02:32:50.337Z,73.85
2017-10-12T02:33:50.337Z,73.85
2017-10-12T02:34:50.337Z,74.24
2017-10-12T02:35:50.334Z,73.85
2017-10-12T02:36:50.336Z,74.62
2017-10-12T02:37:50.338Z,75.09
2017-10-12T02:38:50.336Z,74.99
2017-10-12T02:39:50.335Z,75.38
2017-10-12T02:40:50.335Z,74.99
2017-10-12T02:41:50.335Z,75.19
2017-10-12T02:42:50.335Z,75.19
2017-10-12T02:43:50.335Z,74.99
2017-10-12T02:44:50.335Z,74.99
2017-10-12T02:45:50.335Z,75.09
2017-10-12T02:46:50.334Z,74.43
2017-10-12T02:47:50.348Z,74.71
2017-10-12T02:48:50.333Z,74.80
2017-10-12T02:49:50.334Z,74.62
2017-10-12T02:50:50.338Z,74.43
2017-10-12T02:51:50.333Z,74.14
2017-10-12T02:52:50.333Z,74.71
2017-10-12T02:53:50.333Z,73.95
2017-10-12T02:54:50.333Z,74.04
2017-10-12T02:55:50.332Z,73.95
2017-10-12T02:56:50.331Z,73.85
2017-10-12T02:57:50.332Z,73.95
2017-10-12T02:58:50.330Z,73.85
2017-10-12T02:59:50.329Z,73.95
2017-10-12T03:00:50.330Z,73.66
2017-10-12T03:01:50.329Z,73.28
2017-10-12T03:02:50.331Z,73.03
2017-10-12T03:03:50.329Z,72.94
2017-10-12T03:04:50.329Z,72.56
2017-10-12T03:05:50.331Z,71.70
2017-10-12T03:06:50.329Z,71.51
2017-10-12T03:07:50.328Z,71.22
2017-10-12T03:08:50.326Z,71.32
2017-10-12T03:09:50.327Z,71.32
2017-10-12T03:10:50.351Z,70.84
2017-10-12T03:11:50.328Z,70.75
2017-10-12T03:12:50.327Z,71.03
2017-10-12T03:13:50.334Z,70.18
2017-10-12T03:14:50.327Z,70.27
2017-10-12T03:15:50.326Z,70.84
2017-10-12T03:16:50.328Z,70.37
2017-10-12T03:17:50.326Z,70.75
2017-10-12T03:18:50.327Z,69.89
2017-10-12T03:19:50.326Z,69.99
2017-10-12T03:20:50.326Z,69.89
2017-10-12T03:21:50.326Z,69.70
2017-10-12T03:22:50.328Z,69.42
2017-10-12T03:23:50.325Z,69.60
2017-10-12T03:24:50.327Z,69.93
2017-10-12T03:25:50.328Z,69.45
2017-10-12T03:26:50.327Z,69.54
2017-10-12T03:27:50.327Z,69.74
2017-10-12T03:28:50.328Z,69.54
2017-10-12T03:29:50.342Z,69.17
2017-10-12T03:30:50.328Z,68.98
2017-10-12T03:31:50.326Z,69.07
2017-10-12T03:32:50.328Z,68.98
2017-10-12T03:33:50.335Z,68.98
2017-10-12T03:34:50.327Z,68.30
2017-10-12T03:35:50.328Z,68.59
2017-10-12T03:36:50.328Z,68.88
2017-10-12T03:37:50.327Z,68.98
2017-10-12T03:38:50.328Z,68.69
2017-10-12T03:39:50.328Z,68.59
2017-10-12T03:40:50.328Z,68.69
2017-10-12T03:41:50.328Z,68.40
2017-10-12T03:42:50.328Z,68.98
2017-10-12T03:43:50.327Z,68.78
2017-10-12T03:44:50.329Z,68.56
2017-10-12T03:45:50.329Z,68.98
2017-10-12T03:46:50.330Z,69.26
2017-10-12T03:47:50.329Z,69.42
2017-10-12T03:48:50.329Z,69.79
2017-10-12T03:49:50.329Z,69.23
2017-10-12T03:50:50.330Z,69.42
2017-10-12T03:51:50.329Z,69.42
2017-10-12T03:52:50.331Z,69.60
2017-10-12T03:53:50.330Z,69.64
2017-10-12T03:54:50.330Z,69.60
2017-10-12T03:55:50.329Z,69.04
2017-10-12T03:56:50.330Z,69.32
2017-10-12T03:57:50.330Z,69.70
2017-10-12T03:58:50.331Z,68.94
2017-10-12T03:59:50.330Z,68.75
2017-10-12T04:00:50.331Z,68.94
2017-10-12T04:01:50.332Z,68.84
2017-10-12T04:02:50.332Z,69.04
2017-10-12T04:03:50.331Z,68.65
2017-10-12T04:04:50.334Z,68.75
2017-10-12T04:05:50.332Z,68.56
2017-10-12T04:06:50.333Z,68.65
2017-10-12T04:07:50.330Z,69.79
2017-10-12T04:08:50.331Z,69.23
2017-10-12T04:09:50.335Z,68.65
2017-10-12T04:10:50.333Z,69.23
2017-10-12T04:11:50.332Z,68.65
2017-10-12T04:12:50.332Z,68.94
2017-10-12T04:13:50.336Z,68.56
2017-10-12T04:14:50.333Z,68.65
2017-10-12T04:15:50.330Z,68.75
2017-10-12T04:16:50.331Z,68.65
2017-10-12T04:17:50.332Z,68.37
2017-10-12T04:18:50.331Z,68.46
2017-10-12T04:19:50.335Z,68.18
2017-10-12T04:20:50.332Z,68.27
2017-10-12T04:21:50.330Z,68.27
2017-10-12T04:22:50.331Z,68.46
2017-10-12T04:23:50.334Z,68.56
2017-10-12T04:24:50.332Z,68.46
2017-10-12T04:25:50.332Z,68.84
2017-10-12T04:26:50.331Z,68.46
2017-10-12T04:27:50.332Z,68.27
2017-10-12T04:28:50.331Z,67.99
2017-10-12T04:29:50.331Z,67.89
2017-10-12T04:30:50.333Z,68.27
2017-10-12T04:31:50.331Z,67.80
2017-10-12T04:32:50.332Z,67.51
2017-10-12T04:33:50.331Z,67.89
2017-10-12T04:34:50.331Z,67.80
2017-10-12T04:35:50.331Z,67.89
2017-10-12T04:36:50.332Z,67.99
2017-10-12T04:37:50.336Z,67.80
2017-10-12T04:38:50.333Z,67.61
2017-10-12T04:39:50.331Z,68.08
2017-10-12T04:40:50.332Z,68.18
2017-10-12T04:41:50.331Z,68.08
2017-10-12T04:42:50.331Z,67.51
2017-10-12T04:43:50.331Z,67.32
2017-10-12T04:44:50.332Z,67.32
2017-10-12T04:45:50.332Z,67.41
2017-10-12T04:46:50.332Z,67.41
2017-10-12T04:47:50.332Z,67.32
2017-10-12T04:48:50.332Z,67.41
2017-10-12T04:49:50.332Z,67.89
2017-10-12T04:50:50.332Z,67.32
2017-10-12T04:51:50.332Z,67.41
2017-10-12T04:52:50.331Z,67.32
2017-10-12T04:53:50.332Z,67.41
2017-10-12T04:54:50.332Z,66.85
2017-10-12T04:55:50.331Z,66.94
2017-10-12T04:56:50.331Z,66.94
2017-10-12T04:57:50.331Z,66.56
2017-10-12T04:58:50.333Z,66.66
2017-10-12T04:59:50.330Z,66.27
2017-10-12T05:00:50.331Z,66.46
2017-10-12T05:01:50.331Z,67.41
2017-10-12T05:02:50.333Z,66.75
2017-10-12T05:03:50.332Z,66.94
2017-10-12T05:04:50.338Z,66.56
2017-10-12T05:05:50.333Z,66.94
2017-10-12T05:06:50.338Z,66.75
2017-10-12T05:07:50.331Z,66.85
2017-10-12T05:08:50.332Z,66.66
2017-10-12T05:09:50.333Z,66.46
2017-10-12T05:10:50.333Z,66.37
2017-10-12T05:11:50.330Z,66.27
2017-10-12T05:12:50.331Z,66.66
2017-10-12T05:13:50.332Z,66.66
2017-10-12T05:14:50.332Z,66.75
2017-10-12T05:15:50.330Z,66.46
2017-10-12T05:16:50.331Z,65.99
2017-10-12T05:17:50.330Z,66.94
2017-10-12T05:18:50.331Z,66.27
2017-10-12T05:19:50.330Z,66.18
2017-10-12T05:20:50.331Z,65.99
2017-10-12T05:21:50.333Z,65.89
2017-10-12T05:22:50.333Z,65.89
2017-10-12T05:23:50.332Z,65.80
2017-10-12T05:24:50.330Z,65.51
2017-10-12T05:25:50.332Z,65.42
2017-10-12T05:26:50.332Z,65.51
2017-10-12T05:27:50.330Z,65.32
2017-10-12T05:28:50.334Z,65.80
2017-10-12T05:29:50.330Z,65.61
2017-10-12T05:30:50.337Z,64.94
2017-10-12T05:31:50.331Z,64.94
2017-10-12T05:32:50.330Z,65.13
2017-10-12T05:33:50.331Z,65.26
2017-10-12T05:34:50.331Z,64.87
2017-10-12T05:35:50.330Z,65.64
2017-10-12T05:36:50.331Z,65.73
2017-10-12T05:37:50.330Z,65.70
2017-10-12T05:38:50.330Z,65.83
2017-10-12T05:39:50.336Z,64.78
2017-10-12T05:40:50.330Z,64.78
2017-10-12T05:41:50.342Z,64.97
2017-10-12T05:42:50.331Z,64.69
2017-10-12T05:43:50.341Z,64.59
2017-10-12T05:44:50.332Z,65.16
2017-10-12T05:45:50.331Z,64.40
2017-10-12T05:46:50.332Z,64.50
2017-10-12T05:47:50.336Z,64.31
2017-10-12T05:48:50.331Z,63.92
2017-10-12T05:49:50.332Z,64.12
2017-10-12T05:50:50.333Z,64.31
2017-10-12T05:51:50.331Z,64.50
2017-10-12T05:52:50.333Z,64.69
2017-10-12T05:53:50.332Z,64.75
2017-10-12T05:54:50.334Z,65.03
2017-10-12T05:55:50.332Z,64.94
2017-10-12T05:56:50.332Z,64.84
2017-10-12T05:57:50.332Z,64.65
2017-10-12T05:58:50.336Z,64.78
2017-10-12T05:59:50.332Z,64.50
2017-10-12T06:00:50.332Z,64.40
2017-10-12T06:01:50.333Z,64.21
2017-10-12T06:02:50.333Z,64.47
2017-10-12T06:03:50.333Z,64.56
2017-10-12T06:04:50.333Z,64.65
2017-10-12T06:05:50.333Z,66.18
2017-10-12T06:06:50.336Z,65.70
2017-10-12T06:07:50.341Z,65.51
2017-10-12T06:08:50.334Z,65.89
2017-10-12T06:09:50.335Z,65.99
2017-10-12T06:10:50.336Z,65.03
2017-10-12T06:11:50.335Z,64.94
2017-10-12T06:12:50.333Z,64.65
2017-10-12T06:13:50.335Z,64.08
2017-10-12T06:14:50.336Z,64.31
2017-10-12T06:15:50.334Z,63.64
2017-10-12T06:16:50.336Z,63.26
2017-10-12T06:17:50.335Z,63.17
2017-10-12T06:18:50.336Z,62.30
2017-10-12T06:19:50.335Z,62.02
2017-10-12T06:20:50.336Z,61.54
2017-10-12T06:21:50.335Z,61.45
2017-10-12T06:22:50.337Z,63.07
2017-10-12T06:23:50.335Z,61.93
2017-10-12T06:24:50.337Z,62.21
2017-10-12T06:25:50.338Z,61.93
2017-10-12T06:26:50.336Z,62.12
2017-10-12T06:27:50.336Z,61.93
2017-10-12T06:28:50.337Z,62.52
2017-10-12T06:29:50.342Z,61.76
2017-10-12T06:30:50.338Z,61.86
2017-10-12T06:31:50.338Z,61.35
2017-10-12T06:32:50.339Z,61.48
2017-10-12T06:33:50.339Z,61.38
2017-10-12T06:34:50.341Z,60.81
2017-10-12T06:35:50.340Z,61.76
2017-10-12T06:36:50.341Z,61.19
2017-10-12T06:37:50.342Z,61.38
2017-10-12T06:38:50.343Z,61.67
2017-10-12T06:39:50.341Z,61.67
2017-10-12T06:40:50.343Z,60.81
2017-10-12T06:41:50.344Z,61.57
2017-10-12T06:42:50.343Z,61.76
2017-10-12T06:43:50.345Z,61.57
2017-10-12T06:44:50.346Z,61.67
2017-10-12T06:45:50.401Z,62.34
2017-10-12T06:46:50.347Z,62.43
2017-10-12T06:47:50.347Z,62.43
2017-10-12T06:48:50.347Z,62.34
2017-10-12T06:49:50.354Z,62.62
2017-10-12T06:50:50.351Z,61.67
2017-10-12T06:51:50.350Z,61.29
2017-10-12T06:52:50.350Z,61.48
2017-10-12T06:53:50.351Z,62.05
2017-10-12T06:54:50.353Z,61.57
2017-10-12T06:55:50.354Z,60.84
2017-10-12T06:56:50.353Z,60.68
2017-10-12T06:57:50.353Z,57.94
2017-10-12T06:58:50.356Z,56.06
2017-10-12T06:59:50.358Z,55.13
2017-10-12T07:00:50.359Z,54.85
2017-10-12T07:01:50.362Z,52.87
2017-10-12T07:02:50.366Z,51.84
2017-10-12T07:03:50.372Z,50.89
2017-10-12T07:04:50.371Z,50.79
2017-10-12T07:05:50.375Z,51.58
2017-10-12T07:06:50.380Z,51.10
2017-10-12T07:07:50.384Z,50.24
2017-10-12T07:08:50.390Z,49.95
2017-10-12T07:09:50.394Z,49.57
2017-10-12T07:10:50.399Z,50.36
2017-10-12T07:11:50.405Z,48.75
2017-10-12T07:12:50.409Z,47.99
2017-10-12T07:13:50.419Z,48.09
2017-10-12T07:14:50.423Z,48.83
2017-10-12T07:15:50.428Z,49.69
2017-10-12T07:16:50.432Z,49.76
2017-10-12T07:17:50.439Z,49.79
2017-10-12T07:18:50.444Z,49.79
2017-10-12T07:19:50.449Z,50.07
2017-10-12T07:20:50.456Z,50.72
2017-10-12T07:21:50.462Z,51.97
2017-10-12T07:22:50.469Z,53.28
2017-10-12T07:23:50.471Z,52.80
2017-10-12T07:24:50.478Z,52.80
2017-10-12T07:25:50.482Z,53.85
2017-10-12T07:26:50.488Z,52.61
2017-10-12T07:27:50.493Z,53.08
2017-10-12T07:28:50.498Z,52.63
2017-10-12T07:29:50.505Z,51.58
2017-10-12T07:30:50.511Z,50.84
2017-10-12T07:31:50.524Z,49.14
2017-10-12T07:32:50.522Z,49.43
2017-10-12T07:33:50.530Z,49.71
2017-10-12T07:34:50.537Z,48.47
2017-10-12T07:35:50.542Z,47.71
2017-10-12T07:36:50.550Z,47.44
2017-10-12T07:37:50.557Z,48.49
2017-10-12T07:38:50.566Z,48.13
2017-10-12T07:39:50.576Z,47.15
2017-10-12T07:40:50.579Z,46.19
2017-10-12T07:41:50.586Z,46.48
2017-10-12T07:42:50.595Z,46.96
2017-10-12T07:43:50.601Z,47.13
2017-10-12T07:44:50.608Z,48.47
2017-10-12T07:45:50.616Z,49.79
2017-10-12T07:46:50.622Z,50.26
2017-10-12T07:47:50.628Z,50.15
2017-10-12T07:48:50.637Z,49.95
2017-10-12T07:49:50.642Z,51.01
2017-10-12T07:50:50.647Z,51.29
2017-10-12T07:51:50.654Z,50.84
2017-10-12T07:52:50.660Z,51.20
2017-10-12T07:53:50.667Z,53.11
2017-10-12T07:54:50.673Z,52.15
2017-10-12T07:55:50.679Z,52.09
2017-10-12T07:56:50.685Z,51.39
2017-10-12T07:57:50.691Z,51.58
2017-10-12T07:58:50.695Z,51.68
2017-10-12T07:59:50.702Z,52.83
2017-10-12T08:00:50.707Z,53.97
2017-10-12T08:01:50.727Z,53.04
2017-10-12T08:02:50.718Z,51.32
2017-10-12T08:03:50.725Z,50.67
2017-10-12T08:04:50.729Z,48.38
2017-10-12T08:05:50.736Z,48.40
2017-10-12T08:06:50.872Z,47.92
2017-10-12T08:07:50.746Z,47.82
2017-10-12T08:08:50.753Z,47.32
2017-10-12T08:09:50.758Z,47.22
2017-10-12T08:10:50.762Z,47.61
2017-10-12T08:11:50.770Z,49.65
2017-10-12T08:12:50.776Z,49.45
2017-10-12T08:13:50.780Z,48.49
2017-10-12T08:14:50.785Z,48.78
2017-10-12T08:15:50.790Z,48.40
2017-10-12T08:16:50.797Z,48.75
2017-10-12T08:17:50.803Z,49.43
2017-10-12T08:18:50.808Z,49.71
2017-10-12T08:19:50.812Z,51.34
2017-10-12T08:20:50.817Z,51.63
2017-10-12T08:21:50.824Z,50.96
2017-10-12T08:22:50.829Z,51.25
2017-10-12T08:23:50.832Z,51.54
2017-10-12T08:24:50.840Z,51.92
2017-10-12T08:25:50.843Z,51.49
2017-10-12T08:26:50.850Z,50.65
2017-10-12T08:27:50.855Z,49.82
2017-10-12T08:28:50.860Z,49.72
2017-10-12T08:29:50.866Z,51.23
2017-10-12T08:30:50.877Z,50.84
2017-10-12T08:31:50.878Z,50.46
2017-10-12T08:32:50.884Z,50.87
2017-10-12T08:33:50.891Z,49.17
2017-10-12T08:34:50.898Z,47.27
2017-10-12T08:35:50.902Z,46.21
2017-10-12T08:36:50.910Z,45.97
2017-10-12T08:37:50.916Z,44.74
2017-10-12T08:38:50.924Z,43.88
2017-10-12T08:39:50.929Z,44.09
2017-10-12T08:40:50.936Z,44.84
2017-10-12T08:41:50.945Z,45.39
2017-10-12T08:42:50.951Z,45.87
2017-10-12T08:43:50.958Z,46.72
2017-10-12T08:44:50.966Z,47.58
2017-10-12T08:45:50.973Z,45.95
2017-10-12T08:46:50.988Z,46.53
2017-10-12T08:47:50.987Z,46.98
2017-10-12T08:48:51.000Z,48.49
2017-10-12T08:49:51.002Z,49.62
2017-10-12T08:50:51.010Z,50.65
2017-10-12T08:51:51.015Z,51.51
2017-10-12T08:52:51.023Z,52.00
2017-10-12T08:53:51.032Z,52.00
2017-10-12T08:54:51.039Z,52.86
2017-10-12T08:55:51.060Z,53.44
2017-10-12T08:56:51.051Z,53.82
2017-10-12T08:57:51.059Z,53.15
2017-10-12T08:58:51.064Z,53.34
2017-10-12T08:59:51.070Z,53.24
2017-10-12T09:00:51.082Z,52.05
2017-10-12T09:01:51.084Z,52.05
2017-10-12T09:02:51.092Z,51.95
2017-10-12T09:03:51.098Z,50.99
2017-10-12T09:04:51.107Z,49.67
2017-10-12T09:05:51.113Z,49.48
2017-10-12T09:06:51.121Z,47.97
2017-10-12T09:07:51.126Z,48.83
2017-10-12T09:08:51.133Z,48.90
2017-10-12T09:09:51.143Z,49.67
2017-10-12T09:10:51.149Z,49.99
2017-10-12T09:11:51.157Z,51.74
2017-10-12T09:12:51.164Z,48.85
2017-10-12T09:13:51.172Z,48.08
2017-10-12T09:14:51.181Z,46.01
2017-10-12T09:15:51.187Z,44.11
2017-10-12T09:16:51.196Z,44.04
2017-10-12T09:17:51.205Z,44.02
2017-10-12T09:18:51.214Z,44.67
2017-10-12T09:19:51.223Z,44.86
2017-10-12T09:20:51.540Z,46.78
2017-10-12T09:21:51.239Z,45.22
2017-10-12T09:22:51.248Z,44.93
2017-10-12T09:23:51.257Z,46.06
2017-10-12T09:24:51.266Z,46.55
2017-10-12T09:25:51.275Z,46.45
2017-10-12T09:26:51.282Z,47.41
2017-10-12T09:27:51.291Z,49.51
2017-10-12T09:28:51.297Z,49.99
2017-10-12T09:29:51.307Z,51.31
2017-10-12T09:30:51.316Z,50.34
2017-10-12T09:31:51.325Z,51.28
2017-10-12T09:32:51.332Z,52.05
2017-10-12T09:33:51.339Z,52.24
2017-10-12T09:34:51.349Z,52.62
2017-10-12T09:35:51.355Z,53.49
2017-10-12T09:36:51.363Z,53.11
2017-10-12T09:37:51.371Z,53.87
2017-10-12T09:38:51.377Z,55.32
2017-10-12T09:39:51.384Z,53.30
2017-10-12T09:40:51.391Z,53.87
2017-10-12T09:41:51.400Z,54.25
2017-10-12T09:42:51.408Z,54.45
2017-10-12T09:43:51.411Z,53.87
2017-10-12T09:44:51.419Z,52.91
2017-10-12T09:45:51.426Z,53.46
2017-10-12T09:46:51.435Z,53.08
2017-10-12T09:47:51.441Z,53.11
2017-10-12T09:48:51.449Z,52.53
2017-10-12T09:49:51.454Z,51.79
2017-10-12T09:50:51.462Z,51.21
2017-10-12T09:51:51.467Z,50.85
2017-10-12T09:52:51.475Z,51.23
2017-10-12T09:53:51.483Z,50.92
2017-10-12T09:54:51.489Z,51.50
2017-10-12T09:55:51.496Z,51.59
2017-10-12T09:56:51.502Z,51.98
2017-10-12T09:57:51.510Z,51.40
2017-10-12T09:58:51.518Z,51.28
2017-10-12T09:59:51.526Z,51.67
2017-10-12T10:00:51.530Z,51.57
2017-10-12T10:01:51.537Z,51.67
2017-10-12T10:02:51.545Z,52.34
2017-10-12T10:03:51.552Z,52.24
2017-10-12T10:04:51.557Z,51.95
2017-10-12T10:05:51.572Z,52.24
2017-10-12T10:06:51.571Z,52.05
2017-10-12T10:07:51.578Z,52.53
2017-10-12T10:08:51.583Z,53.08
2017-10-12T10:09:51.590Z,52.31
2017-10-12T10:10:51.597Z,51.83
2017-10-12T10:11:51.604Z,52.02
2017-10-12T10:12:51.609Z,52.02
2017-10-12T10:13:51.616Z,51.09
2017-10-12T10:14:51.625Z,49.74
2017-10-12T10:15:51.630Z,49.84
2017-10-12T10:16:51.635Z,49.65
2017-10-12T10:17:51.642Z,50.51
2017-10-12T10:18:51.649Z,50.23
2017-10-12T10:19:51.654Z,50.23
2017-10-12T10:20:51.661Z,50.32
2017-10-12T10:21:51.670Z,50.99
2017-10-12T10:22:51.674Z,51.28
2017-10-12T10:23:51.684Z,51.37
2017-10-12T10:24:51.688Z,50.13
2017-10-12T10:25:51.695Z,51.37
2017-10-12T10:26:51.702Z,50.90
2017-10-12T10:27:51.708Z,51.28
2017-10-12T10:28:51.714Z,51.47
2017-10-12T10:29:51.722Z,51.37
2017-10-12T10:30:51.728Z,51.86
2017-10-12T10:31:51.733Z,51.86
2017-10-12T10:32:51.742Z,51.69
2017-10-12T10:33:51.748Z,51.50
2017-10-12T10:34:51.755Z,51.11
2017-10-12T10:35:51.763Z,51.59
2017-10-12T10:36:51.769Z,51.86
2017-10-12T10:37:51.776Z,51.86
2017-10-12T10:38:51.783Z,53.11
2017-10-12T10:39:51.789Z,52.91
2017-10-12T10:40:51.798Z,53.11
2017-10-12T10:41:51.803Z,52.53
2017-10-12T10:42:51.812Z,52.43
2017-10-12T10:43:51.817Z,53.11
2017-10-12T10:44:51.825Z,52.46
2017-10-12T10:45:51.837Z,52.65
2017-10-12T10:46:51.839Z,53.20
2017-10-12T10:47:51.847Z,53.01
2017-10-12T10:48:51.852Z,53.30
2017-10-12T10:49:51.861Z,53.08
2017-10-12T10:50:51.868Z,52.98
2017-10-12T10:51:51.873Z,53.94
2017-10-12T10:52:51.887Z,53.85
2017-10-12T10:53:51.888Z,53.66
2017-10-12T10:54:51.895Z,53.66
2017-10-12T10:55:51.901Z,53.49
2017-10-12T10:56:51.908Z,53.87
2017-10-12T10:57:51.916Z,53.39
2017-10-12T10:58:51.921Z,53.49
2017-10-12T10:59:51.929Z,53.97
2017-10-12T11:00:51.935Z,53.85
2017-10-12T11:01:51.945Z,55.19
2017-10-12T11:02:51.949Z,54.71
2017-10-12T11:03:51.955Z,53.94
2017-10-12T11:04:51.961Z,54.25
2017-10-12T11:05:51.969Z,53.85
2017-10-12T11:06:51.980Z,53.94
2017-10-12T11:07:51.980Z,54.61
2017-10-12T11:08:51.988Z,54.61
2017-10-12T11:09:51.993Z,55.00
2017-10-12T11:10:52.001Z,54.61
2017-10-12T11:11:52.023Z,55.38
2017-10-12T11:12:52.012Z,55.38
2017-10-12T11:13:52.020Z,55.16
2017-10-12T11:14:52.025Z,55.19
2017-10-12T11:15:52.031Z,56.02
2017-10-12T11:16:52.038Z,55.55
2017-10-12T11:17:52.045Z,55.00
2017-10-12T11:18:52.050Z,55.47
2017-10-12T11:19:52.055Z,54.80
2017-10-12T11:20:52.063Z,55.02
2017-10-12T11:21:52.070Z,53.52
2017-10-12T11:22:52.076Z,52.65
2017-10-12T11:23:52.081Z,52.10
2017-10-12T11:24:52.088Z,50.37
2017-10-12T11:25:52.095Z,51.26
2017-10-12T11:26:52.104Z,50.01
2017-10-12T11:27:52.108Z,49.53
2017-10-12T11:28:52.116Z,49.53
2017-10-12T11:29:52.123Z,49.15
2017-10-12T11:30:52.133Z,49.17
2017-10-12T11:31:52.139Z,48.88
2017-10-12T11:32:52.148Z,48.69
2017-10-12T11:33:52.156Z,48.88
2017-10-12T11:34:52.163Z,49.91
2017-10-12T11:35:52.171Z,49.63
2017-10-12T11:36:52.179Z,49.63
2017-10-12T11:37:52.187Z,48.97
2017-10-12T11:38:52.195Z,48.97
2017-10-12T11:39:52.202Z,48.43
2017-10-12T11:40:52.210Z,48.23
2017-10-12T11:41:52.220Z,48.23
2017-10-12T11:42:52.229Z,48.81
2017-10-12T11:43:52.236Z,48.43
2017-10-12T11:44:52.247Z,48.33
2017-10-12T11:45:52.257Z,48.59
2017-10-12T11:46:52.263Z,48.69
2017-10-12T11:47:52.270Z,48.49
2017-10-12T11:48:52.288Z,48.76
2017-10-12T11:49:52.290Z,49.46
2017-10-12T11:50:52.300Z,49.53
2017-10-12T11:51:52.307Z,49.53
2017-10-12T11:52:52.317Z,49.55
2017-10-12T11:53:52.323Z,48.88
2017-10-12T11:54:52.332Z,48.97
2017-10-12T11:55:52.340Z,49.65
2017-10-12T11:56:52.349Z,49.84
2017-10-12T11:57:52.358Z,49.55
2017-10-12T11:58:52.369Z,48.52
2017-10-12T11:59:52.378Z,47.85
2017-10-12T12:00:52.385Z,48.06
2017-10-12T12:01:52.394Z,49.79
2017-10-12T12:02:52.404Z,47.80
2017-10-12T12:03:52.412Z,47.49
2017-10-12T12:04:52.422Z,47.08
2017-10-12T12:05:52.431Z,47.65
2017-10-12T12:06:52.441Z,48.88
2017-10-12T12:07:52.451Z,49.65
2017-10-12T12:08:52.460Z,49.72
2017-10-12T12:09:52.469Z,50.01
2017-10-12T12:10:52.499Z,50.20
2017-10-12T12:11:52.489Z,50.61
2017-10-12T12:12:52.497Z,50.04
2017-10-12T12:13:52.505Z,49.82
2017-10-12T12:14:52.513Z,49.91
2017-10-12T12:15:52.521Z,50.08
2017-10-12T12:16:52.530Z,50.46
2017-10-12T12:17:52.540Z,50.76
2017-10-12T12:18:52.548Z,50.46
2017-10-12T12:19:52.555Z,50.30
2017-10-12T12:20:52.564Z,50.30
2017-10-12T12:21:52.572Z,50.87
2017-10-12T12:22:52.581Z,51.04
2017-10-12T12:23:52.590Z,51.43
2017-10-12T12:24:52.597Z,51.43
2017-10-12T12:25:52.606Z,51.31
2017-10-12T12:26:52.614Z,52.08
2017-10-12T12:27:52.621Z,52.84
2017-10-12T12:28:52.628Z,53.13
2017-10-12T12:29:52.637Z,52.65
2017-10-12T12:30:52.647Z,53.70
2017-10-12T12:31:52.652Z,53.03
2017-10-12T12:32:52.659Z,53.52
2017-10-12T12:33:52.667Z,53.42
2017-10-12T12:34:52.676Z,52.94
2017-10-12T12:35:52.681Z,53.52
2017-10-12T12:36:52.689Z,53.42
2017-10-12T12:37:52.696Z,53.13
2017-10-12T12:38:52.704Z,53.97
2017-10-12T12:39:52.710Z,54.25
2017-10-12T12:40:52.718Z,54.35
2017-10-12T12:41:52.726Z,53.97
2017-10-12T12:42:52.732Z,53.87
2017-10-12T12:43:52.739Z,54.16
2017-10-12T12:44:52.749Z,54.16
2017-10-12T12:45:52.753Z,54.35
2017-10-12T12:46:52.760Z,54.93
2017-10-12T12:47:52.766Z,55.22
2017-10-12T12:48:52.773Z,54.93
2017-10-12T12:49:52.780Z,55.02
2017-10-12T12:50:52.787Z,55.12
2017-10-12T12:51:52.792Z,54.83
2017-10-12T12:52:52.801Z,54.83